< < Back
Terminal Aerodrome Forecast


Current Version              Previous Versions:   1  2  3  4  5  6  7  8  9  

Terminal Aerodrome Forecast

945
FTUS44 KMRX 231125
TAFTYS
TAF
KTYS 231125Z 2312/2412 05003KT P6SM FEW040 BKN250
     FM231700 24006KT P6SM SCT050 SCT250
     FM240100 VRB02KT P6SM FEW060 BKN120=

Latest METAR

593
SAUS80 KWBC 232100 RRB
MTRTYS
METAR KTYS 232053Z 29009KT 10SM FEW045 BKN250 30/17 A3021 RMK AO2 SLP219
T03000172 56017


USA.gov is the U.S. government's official web portal to all federal, state and local government web resources and services.